sensor_id;sensor_type;location;lat;lon;timestamp;pressure;altitude;pressure_sealevel;temperature;humidity
67987;BME280;54767;53.800;15.956;2022-12-07T00:01:46;99656.83;;;3.76;80.12
67987;BME280;54767;53.800;15.956;2022-12-07T00:04:16;99655.45;;;3.77;80.12
67987;BME280;54767;53.800;15.956;2022-12-07T00:06:50;99649.38;;;3.76;80.12
67987;BME280;54767;53.800;15.956;2022-12-07T00:09:20;99649.33;;;3.74;80.17
67987;BME280;54767;53.800;15.956;2022-12-07T00:11:50;99645.14;;;3.73;80.17
67987;BME280;54767;53.800;15.956;2022-12-07T00:14:19;99642.73;;;3.73;80.43
67987;BME280;54767;53.800;15.956;2022-12-07T00:16:50;99644.80;;;3.73;79.92
67987;BME280;54767;53.800;15.956;2022-12-07T00:19:19;99643.78;;;3.73;80.38
67987;BME280;54767;53.800;15.956;2022-12-07T00:21:47;99643.95;;;3.73;80.40
67987;BME280;54767;53.800;15.956;2022-12-07T00:24:16;99643.04;;;3.71;80.30
67987;BME280;54767;53.800;15.956;2022-12-07T00:26:44;99640.40;;;3.69;80.35
67987;BME280;54767;53.800;15.956;2022-12-07T00:29:18;99641.42;;;3.68;80.51
67987;BME280;54767;53.800;15.956;2022-12-07T00:31:47;99642.80;;;3.68;80.50
67987;BME280;54767;53.800;15.956;2022-12-07T00:34:18;99638.15;;;3.68;80.35
67987;BME280;54767;53.800;15.956;2022-12-07T00:36:48;99634.34;;;3.69;80.51
67987;BME280;54767;53.800;15.956;2022-12-07T00:39:17;99633.63;;;3.67;80.23
67987;BME280;54767;53.800;15.956;2022-12-07T00:41:45;99632.88;;;3.65;80.45
67987;BME280;54767;53.800;15.956;2022-12-07T00:44:13;99631.10;;;3.62;80.63
67987;BME280;54767;53.800;15.956;2022-12-07T00:46:41;99628.98;;;3.61;80.11
67987;BME280;54767;53.800;15.956;2022-12-07T00:49:09;99623.61;;;3.60;80.47
67987;BME280;54767;53.800;15.956;2022-12-07T00:51:37;99628.46;;;3.61;80.54
67987;BME280;54767;53.800;15.956;2022-12-07T00:54:06;99622.44;;;3.62;80.35
67987;BME280;54767;53.800;15.956;2022-12-07T00:56:34;99625.37;;;3.61;80.34
67987;BME280;54767;53.800;15.956;2022-12-07T00:59:03;99624.46;;;3.60;80.07
67987;BME280;54767;53.800;15.956;2022-12-07T01:01:34;99624.39;;;3.55;80.46
67987;BME280;54767;53.800;15.956;2022-12-07T01:04:04;99623.95;;;3.51;80.63
67987;BME280;54767;53.800;15.956;2022-12-07T01:06:32;99622.84;;;3.48;80.47
67987;BME280;54767;53.800;15.956;2022-12-07T01:09:00;99626.60;;;3.45;80.36
67987;BME280;54767;53.800;15.956;2022-12-07T01:11:29;99622.23;;;3.44;80.12
67987;BME280;54767;53.800;15.956;2022-12-07T01:14:00;99618.77;;;3.43;80.24
67987;BME280;54767;53.800;15.956;2022-12-07T01:16:30;99618.17;;;3.40;80.20
67987;BME280;54767;53.800;15.956;2022-12-07T01:18:59;99618.13;;;3.37;80.26
67987;BME280;54767;53.800;15.956;2022-12-07T01:21:30;99616.67;;;3.34;80.25
67987;BME280;54767;53.800;15.956;2022-12-07T01:24:06;99615.96;;;3.32;79.97
67987;BME280;54767;53.800;15.956;2022-12-07T01:26:35;99613.35;;;3.32;80.19
67987;BME280;54767;53.800;15.956;2022-12-07T01:29:03;99611.14;;;3.33;80.23
67987;BME280;54767;53.800;15.956;2022-12-07T01:31:32;99610.63;;;3.34;80.21
67987;BME280;54767;53.800;15.956;2022-12-07T01:34:00;99612.55;;;3.35;80.44
67987;BME280;54767;53.800;15.956;2022-12-07T01:36:31;99614.94;;;3.33;80.28
67987;BME280;54767;53.800;15.956;2022-12-07T01:39:02;99620.42;;;3.32;80.65
67987;BME280;54767;53.800;15.956;2022-12-07T01:41:34;99620.40;;;3.30;80.31
67987;BME280;54767;53.800;15.956;2022-12-07T01:46:42;99612.70;;;3.26;80.34
67987;BME280;54767;53.800;15.956;2022-12-07T01:49:33;99612.85;;;3.25;80.34
67987;BME280;54767;53.800;15.956;2022-12-07T01:52:20;99611.96;;;3.24;80.33
67987;BME280;54767;53.800;15.956;2022-12-07T01:54:54;99607.25;;;3.22;80.39
67987;BME280;54767;53.800;15.956;2022-12-07T01:57:24;99604.12;;;3.20;80.37
67987;BME280;54767;53.800;15.956;2022-12-07T01:59:53;99605.64;;;3.19;80.38
67987;BME280;54767;53.800;15.956;2022-12-07T02:02:28;99604.73;;;3.18;80.52
67987;BME280;54767;53.800;15.956;2022-12-07T02:05:02;99607.69;;;3.18;80.26
67987;BME280;54767;53.800;15.956;2022-12-07T02:07:32;99603.18;;;3.17;80.08
67987;BME280;54767;53.800;15.956;2022-12-07T02:10:34;99600.75;;;3.17;80.26
67987;BME280;54767;53.800;15.956;2022-12-07T02:13:07;99596.52;;;3.14;80.42
67987;BME280;54767;53.800;15.956;2022-12-07T02:24:00;99592.95;;;3.16;80.16
67987;BME280;54767;53.800;15.956;2022-12-07T02:31:54;99590.01;;;3.15;80.40
67987;BME280;54767;53.800;15.956;2022-12-07T02:37:21;99586.86;;;3.14;80.35
67987;BME280;54767;53.800;15.956;2022-12-07T02:40:00;99587.20;;;3.14;80.23
67987;BME280;54767;53.800;15.956;2022-12-07T02:42:36;99582.18;;;3.13;80.18
67987;BME280;54767;53.800;15.956;2022-12-07T02:45:07;99584.75;;;3.13;80.06
67987;BME280;54767;53.800;15.956;2022-12-07T02:47:37;99581.29;;;3.12;80.29
67987;BME280;54767;53.800;15.956;2022-12-07T02:50:07;99579.20;;;3.12;80.06
67987;BME280;54767;53.800;15.956;2022-12-07T02:52:35;99575.91;;;3.12;80.13
67987;BME280;54767;53.800;15.956;2022-12-07T02:55:04;99574.19;;;3.11;80.25
67987;BME280;54767;53.800;15.956;2022-12-07T02:57:45;99571.27;;;3.13;80.08
67987;BME280;54767;53.800;15.956;2022-12-07T03:00:20;99569.57;;;3.14;80.16
67987;BME280;54767;53.800;15.956;2022-12-07T03:03:10;99564.39;;;3.14;80.12
67987;BME280;54767;53.800;15.956;2022-12-07T03:16:35;99551.29;;;3.08;79.82
67987;BME280;54767;53.800;15.956;2022-12-07T03:19:26;99549.52;;;3.06;79.99
67987;BME280;54767;53.800;15.956;2022-12-07T03:21:57;99546.23;;;3.06;80.05
67987;BME280;54767;53.800;15.956;2022-12-07T03:24:35;99542.68;;;3.02;80.08
67987;BME280;54767;53.800;15.956;2022-12-07T03:27:09;99537.79;;;2.99;79.93
67987;BME280;54767;53.800;15.956;2022-12-07T03:29:50;99534.16;;;2.99;79.91
67987;BME280;54767;53.800;15.956;2022-12-07T03:32:52;99528.63;;;2.99;79.89
67987;BME280;54767;53.800;15.956;2022-12-07T03:35:27;99526.55;;;2.99;79.90
67987;BME280;54767;53.800;15.956;2022-12-07T03:38:02;99523.21;;;2.96;79.85
67987;BME280;54767;53.800;15.956;2022-12-07T03:40:40;99520.73;;;2.92;79.55
67987;BME280;54767;53.800;15.956;2022-12-07T03:43:11;99518.73;;;2.88;79.79
67987;BME280;54767;53.800;15.956;2022-12-07T03:45:42;99514.52;;;2.86;79.57
67987;BME280;54767;53.800;15.956;2022-12-07T03:48:35;99514.14;;;2.84;79.50
67987;BME280;54767;53.800;15.956;2022-12-07T03:51:21;99512.55;;;2.82;79.41
67987;BME280;54767;53.800;15.956;2022-12-07T03:53:54;99512.81;;;2.78;79.66
67987;BME280;54767;53.800;15.956;2022-12-07T03:56:27;99510.68;;;2.76;79.62
67987;BME280;54767;53.800;15.956;2022-12-07T03:58:57;99505.05;;;2.71;79.61
67987;BME280;54767;53.800;15.956;2022-12-07T04:01:25;99502.23;;;2.69;79.71
67987;BME280;54767;53.800;15.956;2022-12-07T04:03:53;99503.73;;;2.66;79.65
67987;BME280;54767;53.800;15.956;2022-12-07T04:06:22;99500.08;;;2.65;79.61
67987;BME280;54767;53.800;15.956;2022-12-07T04:08:50;99503.18;;;2.65;79.60
67987;BME280;54767;53.800;15.956;2022-12-07T04:11:18;99500.55;;;2.62;79.67
67987;BME280;54767;53.800;15.956;2022-12-07T04:13:46;99498.27;;;2.61;79.64
67987;BME280;54767;53.800;15.956;2022-12-07T04:16:33;99498.23;;;2.59;79.74
67987;BME280;54767;53.800;15.956;2022-12-07T04:19:06;99487.70;;;2.59;79.90
67987;BME280;54767;53.800;15.956;2022-12-07T04:21:34;99488.02;;;2.59;79.72
67987;BME280;54767;53.800;15.956;2022-12-07T04:24:03;99487.84;;;2.58;79.74
67987;BME280;54767;53.800;15.956;2022-12-07T04:26:31;99485.41;;;2.58;79.58
67987;BME280;54767;53.800;15.956;2022-12-07T04:29:00;99484.40;;;2.58;79.67
67987;BME280;54767;53.800;15.956;2022-12-07T04:31:35;99481.47;;;2.59;79.83
67987;BME280;54767;53.800;15.956;2022-12-07T04:34:03;99477.84;;;2.59;79.86
67987;BME280;54767;53.800;15.956;2022-12-07T04:36:32;99479.57;;;2.59;79.86
67987;BME280;54767;53.800;15.956;2022-12-07T04:39:02;99481.34;;;2.61;79.90
67987;BME280;54767;53.800;15.956;2022-12-07T04:41:31;99474.47;;;2.63;79.73
67987;BME280;54767;53.800;15.956;2022-12-07T04:44:01;99469.83;;;2.63;79.67
67987;BME280;54767;53.800;15.956;2022-12-07T04:46:31;99462.08;;;2.64;79.68
67987;BME280;54767;53.800;15.956;2022-12-07T04:48:59;99458.62;;;2.64;79.69
67987;BME280;54767;53.800;15.956;2022-12-07T04:51:28;99454.27;;;2.62;79.66
67987;BME280;54767;53.800;15.956;2022-12-07T04:53:57;99453.38;;;2.61;79.72
67987;BME280;54767;53.800;15.956;2022-12-07T04:56:25;99452.85;;;2.62;79.70
67987;BME280;54767;53.800;15.956;2022-12-07T04:58:54;99452.45;;;2.59;79.62
67987;BME280;54767;53.800;15.956;2022-12-07T05:01:23;99455.05;;;2.59;79.63
67987;BME280;54767;53.800;15.956;2022-12-07T05:03:52;99454.29;;;2.56;79.59
67987;BME280;54767;53.800;15.956;2022-12-07T05:06:20;99458.95;;;2.56;79.59
67987;BME280;54767;53.800;15.956;2022-12-07T05:08:48;99456.54;;;2.56;79.60
67987;BME280;54767;53.800;15.956;2022-12-07T05:11:16;99454.63;;;2.56;79.70
67987;BME280;54767;53.800;15.956;2022-12-07T05:14:12;99452.83;;;2.53;79.66
67987;BME280;54767;53.800;15.956;2022-12-07T05:16:42;99448.50;;;2.52;79.68
67987;BME280;54767;53.800;15.956;2022-12-07T05:19:11;99446.41;;;2.51;79.65
67987;BME280;54767;53.800;15.956;2022-12-07T05:21:39;99445.88;;;2.51;79.71
67987;BME280;54767;53.800;15.956;2022-12-07T05:24:10;99445.17;;;2.50;79.59
67987;BME280;54767;53.800;15.956;2022-12-07T05:26:40;99442.58;;;2.49;79.65
67987;BME280;54767;53.800;15.956;2022-12-07T05:29:11;99438.56;;;2.48;79.82
67987;BME280;54767;53.800;15.956;2022-12-07T05:31:41;99442.70;;;2.48;79.89
67987;BME280;54767;53.800;15.956;2022-12-07T05:34:09;99443.39;;;2.47;79.61
67987;BME280;54767;53.800;15.956;2022-12-07T05:36:38;99441.84;;;2.47;79.72
67987;BME280;54767;53.800;15.956;2022-12-07T05:39:08;99439.98;;;2.48;79.82
67987;BME280;54767;53.800;15.956;2022-12-07T05:41:36;99436.89;;;2.50;79.64
67987;BME280;54767;53.800;15.956;2022-12-07T05:44:23;99432.23;;;2.50;79.72
67987;BME280;54767;53.800;15.956;2022-12-07T05:46:51;99434.98;;;2.50;79.80
67987;BME280;54767;53.800;15.956;2022-12-07T05:49:19;99433.93;;;2.49;79.85
67987;BME280;54767;53.800;15.956;2022-12-07T05:51:47;99426.98;;;2.47;79.77
67987;BME280;54767;53.800;15.956;2022-12-07T05:54:15;99424.39;;;2.46;79.77
67987;BME280;54767;53.800;15.956;2022-12-07T05:56:44;99420.58;;;2.46;79.69
67987;BME280;54767;53.800;15.956;2022-12-07T05:59:12;99419.19;;;2.46;79.72
67987;BME280;54767;53.800;15.956;2022-12-07T06:01:57;99418.17;;;2.46;79.64
67987;BME280;54767;53.800;15.956;2022-12-07T06:04:29;99420.42;;;2.47;79.81
67987;BME280;54767;53.800;15.956;2022-12-07T06:06:58;99421.29;;;2.47;79.74
67987;BME280;54767;53.800;15.956;2022-12-07T06:09:27;99418.67;;;2.46;79.84
67987;BME280;54767;53.800;15.956;2022-12-07T06:11:57;99414.34;;;2.45;79.83
67987;BME280;54767;53.800;15.956;2022-12-07T06:14:45;99413.45;;;2.44;79.82
67987;BME280;54767;53.800;15.956;2022-12-07T06:17:13;99412.27;;;2.45;79.81
67987;BME280;54767;53.800;15.956;2022-12-07T06:19:42;99409.36;;;2.46;79.75
67987;BME280;54767;53.800;15.956;2022-12-07T06:22:11;99403.63;;;2.45;79.70
67987;BME280;54767;53.800;15.956;2022-12-07T06:24:39;99399.30;;;2.44;79.70
67987;BME280;54767;53.800;15.956;2022-12-07T06:27:09;99393.95;;;2.44;79.86
67987;BME280;54767;53.800;15.956;2022-12-07T06:29:37;99387.02;;;2.43;79.84
67987;BME280;54767;53.800;15.956;2022-12-07T06:32:05;99384.59;;;2.43;79.89
67987;BME280;54767;53.800;15.956;2022-12-07T06:34:34;99385.48;;;2.44;79.86
67987;BME280;54767;53.800;15.956;2022-12-07T06:37:02;99384.63;;;2.45;79.76
67987;BME280;54767;53.800;15.956;2022-12-07T06:39:31;99380.69;;;2.46;79.75
67987;BME280;54767;53.800;15.956;2022-12-07T06:42:00;99384.67;;;2.46;79.84
67987;BME280;54767;53.800;15.956;2022-12-07T06:44:28;99381.05;;;2.47;79.74
67987;BME280;54767;53.800;15.956;2022-12-07T06:46:56;99380.70;;;2.47;79.79
67987;BME280;54767;53.800;15.956;2022-12-07T06:49:44;99380.67;;;2.45;79.62
67987;BME280;54767;53.800;15.956;2022-12-07T06:52:13;99380.98;;;2.44;79.67
67987;BME280;54767;53.800;15.956;2022-12-07T06:54:41;99378.95;;;2.45;79.71
67987;BME280;54767;53.800;15.956;2022-12-07T06:57:09;99376.67;;;2.44;79.56
67987;BME280;54767;53.800;15.956;2022-12-07T06:59:37;99375.24;;;2.42;79.69
67987;BME280;54767;53.800;15.956;2022-12-07T07:02:05;99370.38;;;2.40;79.63
67987;BME280;54767;53.800;15.956;2022-12-07T07:04:34;99369.48;;;2.39;79.66
67987;BME280;54767;53.800;15.956;2022-12-07T07:07:02;99363.75;;;2.37;79.71
67987;BME280;54767;53.800;15.956;2022-12-07T07:09:30;99360.85;;;2.39;79.85
67987;BME280;54767;53.800;15.956;2022-12-07T07:11:58;99356.09;;;2.43;79.88
67987;BME280;54767;53.800;15.956;2022-12-07T07:14:26;99355.77;;;2.44;79.71
67987;BME280;54767;53.800;15.956;2022-12-07T07:16:55;99354.55;;;2.44;79.67
67987;BME280;54767;53.800;15.956;2022-12-07T07:19:23;99355.37;;;2.42;79.61
67987;BME280;54767;53.800;15.956;2022-12-07T07:21:51;99356.54;;;2.40;79.75
67987;BME280;54767;53.800;15.956;2022-12-07T07:24:20;99354.64;;;2.40;79.75
67987;BME280;54767;53.800;15.956;2022-12-07T07:26:48;99357.79;;;2.42;79.77
67987;BME280;54767;53.800;15.956;2022-12-07T07:29:16;99360.91;;;2.43;79.67
67987;BME280;54767;53.800;15.956;2022-12-07T07:31:45;99359.73;;;2.43;79.69
67987;BME280;54767;53.800;15.956;2022-12-07T07:34:13;99358.52;;;2.44;79.79
67987;BME280;54767;53.800;15.956;2022-12-07T07:36:41;99360.77;;;2.44;79.64
67987;BME280;54767;53.800;15.956;2022-12-07T07:39:10;99355.26;;;2.44;79.69
67987;BME280;54767;53.800;15.956;2022-12-07T07:41:40;99351.26;;;2.43;79.71
67987;BME280;54767;53.800;15.956;2022-12-07T07:44:09;99353.65;;;2.41;79.65
67987;BME280;54767;53.800;15.956;2022-12-07T07:46:38;99354.69;;;2.42;79.61
67987;BME280;54767;53.800;15.956;2022-12-07T07:49:06;99354.05;;;2.44;79.71
67987;BME280;54767;53.800;15.956;2022-12-07T07:51:34;99357.52;;;2.45;79.69
67987;BME280;54767;53.800;15.956;2022-12-07T07:54:03;99356.46;;;2.44;79.60
67987;BME280;54767;53.800;15.956;2022-12-07T07:56:32;99355.06;;;2.43;79.63
67987;BME280;54767;53.800;15.956;2022-12-07T07:59:00;99358.61;;;2.39;79.47
67987;BME280;54767;53.800;15.956;2022-12-07T08:01:28;99362.89;;;2.37;79.47
67987;BME280;54767;53.800;15.956;2022-12-07T08:03:56;99364.59;;;2.36;79.51
67987;BME280;54767;53.800;15.956;2022-12-07T08:06:24;99360.77;;;2.35;79.51
67987;BME280;54767;53.800;15.956;2022-12-07T08:08:59;99361.91;;;2.32;79.45
67987;BME280;54767;53.800;15.956;2022-12-07T08:11:27;99361.17;;;2.30;79.50
67987;BME280;54767;53.800;15.956;2022-12-07T08:13:55;99360.04;;;2.25;79.46
67987;BME280;54767;53.800;15.956;2022-12-07T08:16:23;99350.83;;;2.22;79.68
67987;BME280;54767;53.800;15.956;2022-12-07T08:18:52;99351.86;;;2.22;79.67
67987;BME280;54767;53.800;15.956;2022-12-07T08:21:20;99350.33;;;2.23;79.61
67987;BME280;54767;53.800;15.956;2022-12-07T08:23:48;99347.06;;;2.23;79.56
67987;BME280;54767;53.800;15.956;2022-12-07T08:26:17;99346.54;;;2.23;79.66
67987;BME280;54767;53.800;15.956;2022-12-07T08:28:45;99347.36;;;2.21;79.50
67987;BME280;54767;53.800;15.956;2022-12-07T08:31:17;99346.29;;;2.19;79.65
67987;BME280;54767;53.800;15.956;2022-12-07T08:33:47;99343.11;;;2.16;79.60
67987;BME280;54767;53.800;15.956;2022-12-07T08:36:16;99343.92;;;2.14;79.37
67987;BME280;54767;53.800;15.956;2022-12-07T08:38:44;99342.68;;;2.12;79.49
67987;BME280;54767;53.800;15.956;2022-12-07T08:41:33;99343.58;;;2.14;79.58
67987;BME280;54767;53.800;15.956;2022-12-07T08:44:02;99342.39;;;2.15;79.64
67987;BME280;54767;53.800;15.956;2022-12-07T08:46:39;99339.60;;;2.13;79.58
67987;BME280;54767;53.800;15.956;2022-12-07T08:51:42;99342.61;;;2.09;79.61
67987;BME280;54767;53.800;15.956;2022-12-07T08:54:14;99341.71;;;2.08;79.46
67987;BME280;54767;53.800;15.956;2022-12-07T08:56:45;99339.15;;;2.09;79.61
67987;BME280;54767;53.800;15.956;2022-12-07T08:59:14;99330.95;;;2.12;79.74
67987;BME280;54767;53.800;15.956;2022-12-07T09:01:43;99325.42;;;2.13;79.79
67987;BME280;54767;53.800;15.956;2022-12-07T09:04:11;99319.71;;;2.12;79.68
67987;BME280;54767;53.800;15.956;2022-12-07T09:06:40;99314.34;;;2.11;79.69
67987;BME280;54767;53.800;15.956;2022-12-07T09:09:09;99313.98;;;2.10;79.67
67987;BME280;54767;53.800;15.956;2022-12-07T09:11:38;99315.73;;;2.11;79.70
67987;BME280;54767;53.800;15.956;2022-12-07T09:14:07;99317.98;;;2.11;79.72
67987;BME280;54767;53.800;15.956;2022-12-07T09:16:35;99319.16;;;2.10;79.49
67987;BME280;54767;53.800;15.956;2022-12-07T09:19:03;99311.73;;;2.10;79.54
67987;BME280;54767;53.800;15.956;2022-12-07T09:21:32;99308.09;;;2.09;79.65
67987;BME280;54767;53.800;15.956;2022-12-07T09:24:00;99304.42;;;2.07;79.56
67987;BME280;54767;53.800;15.956;2022-12-07T09:26:28;99309.92;;;2.06;79.64
67987;BME280;54767;53.800;15.956;2022-12-07T09:28:57;99305.61;;;2.06;79.64
67987;BME280;54767;53.800;15.956;2022-12-07T09:31:25;99300.30;;;2.08;79.74
67987;BME280;54767;53.800;15.956;2022-12-07T09:33:59;99298.80;;;2.11;79.57
67987;BME280;54767;53.800;15.956;2022-12-07T09:36:28;99304.15;;;2.11;79.64
67987;BME280;54767;53.800;15.956;2022-12-07T09:38:57;99302.06;;;2.09;79.72
67987;BME280;54767;53.800;15.956;2022-12-07T09:41:27;99298.63;;;2.10;79.88
67987;BME280;54767;53.800;15.956;2022-12-07T09:44:04;99296.47;;;2.15;80.02
67987;BME280;54767;53.800;15.956;2022-12-07T09:46:36;99299.65;;;2.18;79.93
67987;BME280;54767;53.800;15.956;2022-12-07T09:49:12;99294.65;;;2.18;79.75
67987;BME280;54767;53.800;15.956;2022-12-07T09:51:42;99292.25;;;2.19;79.76
67987;BME280;54767;53.800;15.956;2022-12-07T09:54:16;99288.84;;;2.21;79.87
67987;BME280;54767;53.800;15.956;2022-12-07T09:56:44;99295.91;;;2.20;79.91
67987;BME280;54767;53.800;15.956;2022-12-07T09:59:17;99293.33;;;2.21;79.89
67987;BME280;54767;53.800;15.956;2022-12-07T10:01:48;99289.95;;;2.25;79.86
67987;BME280;54767;53.800;15.956;2022-12-07T10:04:25;99281.54;;;2.28;79.73
67987;BME280;54767;53.800;15.956;2022-12-07T10:06:54;99278.84;;;2.31;79.88
67987;BME280;54767;53.800;15.956;2022-12-07T10:09:22;99274.56;;;2.32;79.76
67987;BME280;54767;53.800;15.956;2022-12-07T10:14:29;99275.20;;;2.30;79.79
67987;BME280;54767;53.800;15.956;2022-12-07T10:23:03;99280.61;;;2.42;79.93
67987;BME280;54767;53.800;15.956;2022-12-07T10:25:35;99279.62;;;2.44;79.72
67987;BME280;54767;53.800;15.956;2022-12-07T10:36:37;99277.06;;;2.46;79.67
67987;BME280;54767;53.800;15.956;2022-12-07T10:39:12;99275.70;;;2.47;79.69
67987;BME280;54767;53.800;15.956;2022-12-07T10:42:01;99269.18;;;2.48;79.70
67987;BME280;54767;53.800;15.956;2022-12-07T10:44:32;99266.44;;;2.51;79.66
67987;BME280;54767;53.800;15.956;2022-12-07T10:50:08;99256.98;;;2.52;79.54
67987;BME280;54767;53.800;15.956;2022-12-07T11:04:04;99237.91;;;2.59;79.11
67987;BME280;54767;53.800;15.956;2022-12-07T11:16:05;99231.83;;;2.56;78.98
67987;BME280;54767;53.800;15.956;2022-12-07T11:18:45;99229.55;;;2.54;78.90
67987;BME280;54767;53.800;15.956;2022-12-07T11:21:26;99231.63;;;2.54;79.30
67987;BME280;54767;53.800;15.956;2022-12-07T11:24:10;99225.75;;;2.54;79.15
67987;BME280;54767;53.800;15.956;2022-12-07T11:30:00;99225.77;;;2.55;79.27
67987;BME280;54767;53.800;15.956;2022-12-07T11:35:16;99225.80;;;2.57;79.23
67987;BME280;54767;53.800;15.956;2022-12-07T11:37:49;99222.04;;;2.59;79.34
67987;BME280;54767;53.800;15.956;2022-12-07T11:40:34;99217.89;;;2.59;79.30
67987;BME280;54767;53.800;15.956;2022-12-07T11:43:22;99219.77;;;2.58;79.19
67987;BME280;54767;53.800;15.956;2022-12-07T11:46:03;99217.89;;;2.58;79.06
67987;BME280;54767;53.800;15.956;2022-12-07T11:51:02;99214.09;;;2.59;78.91
67987;BME280;54767;53.800;15.956;2022-12-07T11:53:37;99217.48;;;2.55;78.80
67987;BME280;54767;53.800;15.956;2022-12-07T11:56:17;99216.91;;;2.52;78.87
67987;BME280;54767;53.800;15.956;2022-12-07T12:03:58;99210.41;;;2.46;79.16
67987;BME280;54767;53.800;15.956;2022-12-07T12:06:29;99212.21;;;2.50;79.32
67987;BME280;54767;53.800;15.956;2022-12-07T12:21:08;99214.13;;;2.52;79.29
67987;BME280;54767;53.800;15.956;2022-12-07T12:26:21;99206.38;;;2.52;79.13
67987;BME280;54767;53.800;15.956;2022-12-07T12:29:06;99208.61;;;2.52;79.15
67987;BME280;54767;53.800;15.956;2022-12-07T12:31:40;99201.50;;;2.50;79.21
67987;BME280;54767;53.800;15.956;2022-12-07T12:34:31;99196.49;;;2.51;79.32
67987;BME280;54767;53.800;15.956;2022-12-07T12:36:59;99193.39;;;2.51;79.30
67987;BME280;54767;53.800;15.956;2022-12-07T12:39:28;99196.53;;;2.53;79.23
67987;BME280;54767;53.800;15.956;2022-12-07T12:41:57;99196.75;;;2.54;79.14
67987;BME280;54767;53.800;15.956;2022-12-07T12:47:03;99194.11;;;2.53;79.29
67987;BME280;54767;53.800;15.956;2022-12-07T12:49:36;99193.93;;;2.52;79.21
67987;BME280;54767;53.800;15.956;2022-12-07T12:57:34;99181.86;;;2.53;79.46
67987;BME280;54767;53.800;15.956;2022-12-07T13:00:19;99185.34;;;2.54;79.35
67987;BME280;54767;53.800;15.956;2022-12-07T13:02:52;99182.05;;;2.54;79.42
67987;BME280;54767;53.800;15.956;2022-12-07T13:05:23;99181.52;;;2.54;79.27
67987;BME280;54767;53.800;15.956;2022-12-07T13:08:01;99178.09;;;2.55;79.41
67987;BME280;54767;53.800;15.956;2022-12-07T13:10:40;99177.59;;;2.55;79.22
67987;BME280;54767;53.800;15.956;2022-12-07T13:28:47;99191.59;;;2.56;79.18
67987;BME280;54767;53.800;15.956;2022-12-07T13:31:43;99192.46;;;2.57;79.08
67987;BME280;54767;53.800;15.956;2022-12-07T13:37:01;99193.13;;;2.55;79.13
67987;BME280;54767;53.800;15.956;2022-12-07T13:39:32;99190.32;;;2.52;79.06
67987;BME280;54767;53.800;15.956;2022-12-07T13:42:12;99194.76;;;2.50;79.30
67987;BME280;54767;53.800;15.956;2022-12-07T13:44:43;99194.41;;;2.49;78.96
67987;BME280;54767;53.800;15.956;2022-12-07T13:50:31;99193.55;;;2.50;79.00
67987;BME280;54767;53.800;15.956;2022-12-07T13:53:01;99189.05;;;2.48;78.84
67987;BME280;54767;53.800;15.956;2022-12-07T13:55:30;99188.48;;;2.45;79.02
67987;BME280;54767;53.800;15.956;2022-12-07T13:57:59;99185.79;;;2.40;78.97
67987;BME280;54767;53.800;15.956;2022-12-07T14:00:29;99185.40;;;2.37;79.08
67987;BME280;54767;53.800;15.956;2022-12-07T14:02:59;99188.64;;;2.36;79.04
67987;BME280;54767;53.800;15.956;2022-12-07T14:05:30;99191.52;;;2.33;79.01
67987;BME280;54767;53.800;15.956;2022-12-07T14:08:04;99189.62;;;2.32;79.14
67987;BME280;54767;53.800;15.956;2022-12-07T14:10:40;99189.92;;;2.31;79.14
67987;BME280;54767;53.800;15.956;2022-12-07T14:13:32;99187.99;;;2.29;79.22
67987;BME280;54767;53.800;15.956;2022-12-07T14:16:04;99187.98;;;2.28;79.20
67987;BME280;54767;53.800;15.956;2022-12-07T14:18:39;99185.39;;;2.27;79.00
67987;BME280;54767;53.800;15.956;2022-12-07T14:21:16;99193.49;;;2.27;79.14
67987;BME280;54767;53.800;15.956;2022-12-07T14:24:18;99193.18;;;2.29;79.12
67987;BME280;54767;53.800;15.956;2022-12-07T14:26:49;99190.73;;;2.27;79.23
67987;BME280;54767;53.800;15.956;2022-12-07T14:31:47;99183.95;;;2.24;79.16
67987;BME280;54767;53.800;15.956;2022-12-07T14:34:15;99185.50;;;2.25;79.23
67987;BME280;54767;53.800;15.956;2022-12-07T14:36:44;99185.37;;;2.26;79.21
67987;BME280;54767;53.800;15.956;2022-12-07T14:39:12;99185.58;;;2.28;79.21
67987;BME280;54767;53.800;15.956;2022-12-07T14:41:40;99185.92;;;2.28;79.33
67987;BME280;54767;53.800;15.956;2022-12-07T14:44:20;99184.49;;;2.26;79.22
67987;BME280;54767;53.800;15.956;2022-12-07T14:46:59;99184.61;;;2.23;79.22
67987;BME280;54767;53.800;15.956;2022-12-07T14:49:47;99187.19;;;2.22;79.25
67987;BME280;54767;53.800;15.956;2022-12-07T14:52:25;99188.91;;;2.22;79.25
67987;BME280;54767;53.800;15.956;2022-12-07T14:57:52;99176.32;;;2.22;79.23
67987;BME280;54767;53.800;15.956;2022-12-07T15:00:25;99175.40;;;2.19;79.07
67987;BME280;54767;53.800;15.956;2022-12-07T15:02:54;99177.24;;;2.16;79.13
67987;BME280;54767;53.800;15.956;2022-12-07T15:05:23;99178.09;;;2.16;79.20
67987;BME280;54767;53.800;15.956;2022-12-07T15:07:51;99172.06;;;2.17;79.35
67987;BME280;54767;53.800;15.956;2022-12-07T15:10:23;99179.16;;;2.18;79.18
67987;BME280;54767;53.800;15.956;2022-12-07T15:12:51;99181.62;;;2.19;79.27
67987;BME280;54767;53.800;15.956;2022-12-07T15:15:20;99177.64;;;2.19;79.16
67987;BME280;54767;53.800;15.956;2022-12-07T15:17:48;99179.34;;;2.18;79.28
67987;BME280;54767;53.800;15.956;2022-12-07T15:20:17;99184.30;;;2.16;79.27
67987;BME280;54767;53.800;15.956;2022-12-07T15:22:45;99186.91;;;2.17;79.36
67987;BME280;54767;53.800;15.956;2022-12-07T15:25:14;99182.28;;;2.18;79.38
67987;BME280;54767;53.800;15.956;2022-12-07T15:27:42;99186.42;;;2.18;79.00
67987;BME280;54767;53.800;15.956;2022-12-07T15:30:11;99182.81;;;2.19;79.13
67987;BME280;54767;53.800;15.956;2022-12-07T15:32:39;99183.66;;;2.18;78.92
67987;BME280;54767;53.800;15.956;2022-12-07T15:35:08;99185.66;;;2.15;78.94
67987;BME280;54767;53.800;15.956;2022-12-07T15:37:37;99187.54;;;2.13;79.07
67987;BME280;54767;53.800;15.956;2022-12-07T15:40:06;99185.94;;;2.11;78.86
67987;BME280;54767;53.800;15.956;2022-12-07T15:42:36;99182.30;;;2.10;78.84